Du har inga inställningar för hoppväder.nu

Hoppväder.nu

Senast uppdaterat 03:12

UTC-tid

2021-10-25 kl. 01:12


Sol och måne

Solen går upp 8:16 och går ner 17:52 (beräknade cirkatider)
Nästa fullmåne blir om 25 dagar (2021-11-19)

METAR

ESNN (Sundsvall)
(22 minuter sedan)
ESNN 250050Z AUTO 33003KT 9999 SCT170/// 00/M00 Q1007=



ESNK (Kramfors)
(22 minuter sedan)
ESNK 250050Z AUTO 33003KT 9999 NCD 00/00 Q1007=



ESNO (Örnsköldsvik)
(22 minuter sedan)
ESNO 250050Z AUTO VRB02KT 0300 R12/1000N R30/1100N FG OVC001/// 01/01 Q1005=



ESNY (Söderhamn)
ESNY NIL=



ESNZ (Östersund)
(22 minuter sedan)
ESNZ 250050Z AUTO 22002KT 0150 R12/1000U R30/P2000N FG FEW051/// SCT092/// 03/03 Q1005=



TAF

ESNN (Sundsvall)
ESNN



ESNK (Kramfors)
ESNK



ESNO (Örnsköldsvik)
ESNO



ESNY (Söderhamn)
ESNY



ESNZ (Östersund)
(342 minuter sedan)
ESNZ 241930Z 2420/2422 VRB03KT 9999 SCT030=





Kodnycklar till TAF och METAR






LHP

(Sundsvall är område se42d i Delområde 4)

Prognos är inte uppdaterad






Preliminär prognos